sensor_id;sensor_type;location;lat;lon;timestamp;P1;durP1;ratioP1;P2;durP2;ratioP2
15256;SDS011;7731;50.720;6.912;2022-07-29T00:02:02;6.53;;;2.15;;
15256;SDS011;7731;50.720;6.912;2022-07-29T00:04:33;6.45;;;2.58;;
15256;SDS011;7731;50.720;6.912;2022-07-29T00:07:07;6.53;;;2.35;;
15256;SDS011;7731;50.720;6.912;2022-07-29T00:09:39;6.45;;;2.53;;
15256;SDS011;7731;50.720;6.912;2022-07-29T00:12:18;5.00;;;2.15;;
15256;SDS011;7731;50.720;6.912;2022-07-29T00:14:51;3.45;;;2.30;;
15256;SDS011;7731;50.720;6.912;2022-07-29T00:17:23;4.72;;;2.20;;
15256;SDS011;7731;50.720;6.912;2022-07-29T00:19:54;7.68;;;2.80;;
15256;SDS011;7731;50.720;6.912;2022-07-29T00:22:27;5.63;;;2.40;;
15256;SDS011;7731;50.720;6.912;2022-07-29T00:24:57;9.27;;;2.80;;
15256;SDS011;7731;50.720;6.912;2022-07-29T00:27:28;3.88;;;2.30;;
15256;SDS011;7731;50.720;6.912;2022-07-29T00:29:58;5.60;;;2.60;;
15256;SDS011;7731;50.720;6.912;2022-07-29T00:32:28;4.60;;;2.42;;
15256;SDS011;7731;50.720;6.912;2022-07-29T00:34:59;5.32;;;2.60;;
15256;SDS011;7731;50.720;6.912;2022-07-29T00:37:44;6.47;;;2.78;;
15256;SDS011;7731;50.720;6.912;2022-07-29T00:40:15;5.05;;;2.50;;
15256;SDS011;7731;50.720;6.912;2022-07-29T00:42:50;5.07;;;2.45;;
15256;SDS011;7731;50.720;6.912;2022-07-29T00:45:22;7.35;;;2.70;;
15256;SDS011;7731;50.720;6.912;2022-07-29T00:47:52;5.60;;;2.30;;
15256;SDS011;7731;50.720;6.912;2022-07-29T00:50:22;5.07;;;2.30;;
15256;SDS011;7731;50.720;6.912;2022-07-29T00:52:55;8.02;;;2.50;;
15256;SDS011;7731;50.720;6.912;2022-07-29T00:55:26;5.55;;;2.60;;
15256;SDS011;7731;50.720;6.912;2022-07-29T00:57:58;6.07;;;2.33;;
15256;SDS011;7731;50.720;6.912;2022-07-29T01:00:29;8.65;;;2.80;;
15256;SDS011;7731;50.720;6.912;2022-07-29T01:03:00;5.15;;;2.50;;
15256;SDS011;7731;50.720;6.912;2022-07-29T01:05:30;9.70;;;2.63;;
15256;SDS011;7731;50.720;6.912;2022-07-29T01:08:19;7.63;;;2.50;;
15256;SDS011;7731;50.720;6.912;2022-07-29T01:10:50;6.03;;;2.50;;
15256;SDS011;7731;50.720;6.912;2022-07-29T01:13:22;3.47;;;2.83;;
15256;SDS011;7731;50.720;6.912;2022-07-29T01:15:54;4.72;;;2.78;;
15256;SDS011;7731;50.720;6.912;2022-07-29T01:18:34;4.35;;;2.30;;
15256;SDS011;7731;50.720;6.912;2022-07-29T01:24:38;4.63;;;2.53;;
15256;SDS011;7731;50.720;6.912;2022-07-29T01:27:38;4.15;;;2.25;;
15256;SDS011;7731;50.720;6.912;2022-07-29T01:30:29;5.30;;;2.50;;
15256;SDS011;7731;50.720;6.912;2022-07-29T01:33:06;7.03;;;2.47;;
15256;SDS011;7731;50.720;6.912;2022-07-29T01:36:05;10.63;;;3.10;;
15256;SDS011;7731;50.720;6.912;2022-07-29T01:38:42;2.80;;;2.33;;
15256;SDS011;7731;50.720;6.912;2022-07-29T01:41:22;6.25;;;2.35;;
15256;SDS011;7731;50.720;6.912;2022-07-29T01:43:57;4.47;;;2.40;;
15256;SDS011;7731;50.720;6.912;2022-07-29T01:46:44;4.32;;;2.58;;
15256;SDS011;7731;50.720;6.912;2022-07-29T01:49:25;7.47;;;2.55;;
15256;SDS011;7731;50.720;6.912;2022-07-29T01:52:01;5.45;;;2.50;;
15256;SDS011;7731;50.720;6.912;2022-07-29T01:54:40;4.07;;;2.33;;
15256;SDS011;7731;50.720;6.912;2022-07-29T01:57:16;6.60;;;2.60;;
15256;SDS011;7731;50.720;6.912;2022-07-29T01:59:50;5.50;;;2.92;;
15256;SDS011;7731;50.720;6.912;2022-07-29T02:02:25;4.43;;;2.50;;
15256;SDS011;7731;50.720;6.912;2022-07-29T02:04:58;8.00;;;2.65;;
15256;SDS011;7731;50.720;6.912;2022-07-29T02:07:31;5.13;;;3.17;;
15256;SDS011;7731;50.720;6.912;2022-07-29T02:10:04;5.28;;;2.30;;
15256;SDS011;7731;50.720;6.912;2022-07-29T02:12:38;4.88;;;2.72;;
15256;SDS011;7731;50.720;6.912;2022-07-29T02:15:16;7.20;;;3.13;;
15256;SDS011;7731;50.720;6.912;2022-07-29T02:17:51;4.63;;;2.80;;
15256;SDS011;7731;50.720;6.912;2022-07-29T02:20:27;3.22;;;2.55;;
15256;SDS011;7731;50.720;6.912;2022-07-29T02:23:00;5.07;;;2.70;;
15256;SDS011;7731;50.720;6.912;2022-07-29T02:25:33;4.57;;;2.67;;
15256;SDS011;7731;50.720;6.912;2022-07-29T02:28:05;3.38;;;2.70;;
15256;SDS011;7731;50.720;6.912;2022-07-29T02:30:39;7.95;;;2.95;;
15256;SDS011;7731;50.720;6.912;2022-07-29T02:33:15;2.95;;;2.65;;
15256;SDS011;7731;50.720;6.912;2022-07-29T02:35:49;4.68;;;2.90;;
15256;SDS011;7731;50.720;6.912;2022-07-29T02:38:21;5.13;;;2.92;;
15256;SDS011;7731;50.720;6.912;2022-07-29T02:41:08;6.63;;;2.85;;
15256;SDS011;7731;50.720;6.912;2022-07-29T02:43:43;4.82;;;2.72;;
15256;SDS011;7731;50.720;6.912;2022-07-29T02:46:18;4.80;;;3.10;;
15256;SDS011;7731;50.720;6.912;2022-07-29T02:49:01;5.45;;;3.00;;
15256;SDS011;7731;50.720;6.912;2022-07-29T02:51:40;6.25;;;2.80;;
15256;SDS011;7731;50.720;6.912;2022-07-29T02:54:18;6.72;;;2.90;;
15256;SDS011;7731;50.720;6.912;2022-07-29T02:56:55;3.30;;;2.50;;
15256;SDS011;7731;50.720;6.912;2022-07-29T02:59:33;5.47;;;2.67;;
15256;SDS011;7731;50.720;6.912;2022-07-29T03:02:06;5.45;;;2.72;;
15256;SDS011;7731;50.720;6.912;2022-07-29T03:04:41;4.32;;;2.88;;
15256;SDS011;7731;50.720;6.912;2022-07-29T03:07:15;3.60;;;3.00;;
15256;SDS011;7731;50.720;6.912;2022-07-29T03:09:50;5.90;;;2.92;;
15256;SDS011;7731;50.720;6.912;2022-07-29T03:12:21;7.38;;;2.78;;
15256;SDS011;7731;50.720;6.912;2022-07-29T03:14:53;8.15;;;2.92;;
15256;SDS011;7731;50.720;6.912;2022-07-29T03:17:24;5.00;;;2.70;;
15256;SDS011;7731;50.720;6.912;2022-07-29T03:19:58;3.28;;;2.60;;
15256;SDS011;7731;50.720;6.912;2022-07-29T03:22:29;4.28;;;3.08;;
15256;SDS011;7731;50.720;6.912;2022-07-29T03:25:07;24.50;;;7.20;;
15256;SDS011;7731;50.720;6.912;2022-07-29T03:27:38;6.90;;;3.50;;
15256;SDS011;7731;50.720;6.912;2022-07-29T03:30:09;44.55;;;11.30;;
15256;SDS011;7731;50.720;6.912;2022-07-29T03:32:48;7.80;;;3.75;;
15256;SDS011;7731;50.720;6.912;2022-07-29T03:35:24;6.53;;;3.35;;
15256;SDS011;7731;50.720;6.912;2022-07-29T03:37:56;6.72;;;3.35;;
15256;SDS011;7731;50.720;6.912;2022-07-29T03:40:27;8.75;;;3.63;;
15256;SDS011;7731;50.720;6.912;2022-07-29T03:43:04;9.32;;;4.07;;
15256;SDS011;7731;50.720;6.912;2022-07-29T03:45:38;7.22;;;3.65;;
15256;SDS011;7731;50.720;6.912;2022-07-29T03:48:14;6.57;;;3.17;;
15256;SDS011;7731;50.720;6.912;2022-07-29T03:50:51;6.15;;;3.90;;
15256;SDS011;7731;50.720;6.912;2022-07-29T03:53:22;7.47;;;3.45;;
15256;SDS011;7731;50.720;6.912;2022-07-29T03:55:53;5.13;;;3.30;;
15256;SDS011;7731;50.720;6.912;2022-07-29T03:58:28;9.73;;;4.00;;
15256;SDS011;7731;50.720;6.912;2022-07-29T04:01:01;7.22;;;3.70;;
15256;SDS011;7731;50.720;6.912;2022-07-29T04:03:32;6.15;;;3.40;;
15256;SDS011;7731;50.720;6.912;2022-07-29T04:06:06;8.77;;;3.80;;
15256;SDS011;7731;50.720;6.912;2022-07-29T04:08:37;6.38;;;3.72;;
15256;SDS011;7731;50.720;6.912;2022-07-29T04:11:07;8.18;;;3.85;;
15256;SDS011;7731;50.720;6.912;2022-07-29T04:13:37;6.90;;;3.55;;
15256;SDS011;7731;50.720;6.912;2022-07-29T04:16:08;6.88;;;3.33;;
15256;SDS011;7731;50.720;6.912;2022-07-29T04:18:38;7.00;;;3.83;;
15256;SDS011;7731;50.720;6.912;2022-07-29T04:21:11;12.70;;;3.65;;
15256;SDS011;7731;50.720;6.912;2022-07-29T04:23:41;7.68;;;3.35;;
15256;SDS011;7731;50.720;6.912;2022-07-29T04:26:19;6.53;;;3.35;;
15256;SDS011;7731;50.720;6.912;2022-07-29T04:28:49;5.95;;;3.50;;
15256;SDS011;7731;50.720;6.912;2022-07-29T04:31:20;6.53;;;3.53;;
15256;SDS011;7731;50.720;6.912;2022-07-29T04:33:51;6.38;;;3.58;;
15256;SDS011;7731;50.720;6.912;2022-07-29T04:36:24;9.63;;;3.67;;
15256;SDS011;7731;50.720;6.912;2022-07-29T04:38:55;5.97;;;3.60;;
15256;SDS011;7731;50.720;6.912;2022-07-29T04:41:27;7.15;;;3.47;;
15256;SDS011;7731;50.720;6.912;2022-07-29T04:43:58;7.57;;;3.58;;
15256;SDS011;7731;50.720;6.912;2022-07-29T04:46:37;4.38;;;3.35;;
15256;SDS011;7731;50.720;6.912;2022-07-29T04:49:08;7.70;;;3.10;;
15256;SDS011;7731;50.720;6.912;2022-07-29T04:51:42;4.32;;;3.00;;
15256;SDS011;7731;50.720;6.912;2022-07-29T04:54:12;5.35;;;3.05;;
15256;SDS011;7731;50.720;6.912;2022-07-29T04:56:43;5.88;;;3.35;;
15256;SDS011;7731;50.720;6.912;2022-07-29T04:59:14;6.88;;;3.60;;
15256;SDS011;7731;50.720;6.912;2022-07-29T05:01:44;7.18;;;3.67;;
15256;SDS011;7731;50.720;6.912;2022-07-29T05:04:14;9.18;;;3.78;;
15256;SDS011;7731;50.720;6.912;2022-07-29T05:06:48;10.35;;;3.85;;
15256;SDS011;7731;50.720;6.912;2022-07-29T05:09:18;11.57;;;3.60;;
15256;SDS011;7731;50.720;6.912;2022-07-29T05:11:48;11.88;;;4.35;;
15256;SDS011;7731;50.720;6.912;2022-07-29T05:14:19;13.07;;;3.75;;
15256;SDS011;7731;50.720;6.912;2022-07-29T05:16:49;14.10;;;3.95;;
15256;SDS011;7731;50.720;6.912;2022-07-29T05:19:23;12.63;;;4.18;;
15256;SDS011;7731;50.720;6.912;2022-07-29T05:21:55;13.65;;;4.20;;
15256;SDS011;7731;50.720;6.912;2022-07-29T05:24:26;12.95;;;3.90;;
15256;SDS011;7731;50.720;6.912;2022-07-29T05:26:56;8.05;;;3.88;;
15256;SDS011;7731;50.720;6.912;2022-07-29T05:29:27;10.93;;;3.50;;
15256;SDS011;7731;50.720;6.912;2022-07-29T05:32:10;10.73;;;3.40;;
15256;SDS011;7731;50.720;6.912;2022-07-29T05:34:40;9.35;;;3.28;;
15256;SDS011;7731;50.720;6.912;2022-07-29T05:37:19;5.63;;;3.40;;
15256;SDS011;7731;50.720;6.912;2022-07-29T05:39:50;10.68;;;3.40;;
15256;SDS011;7731;50.720;6.912;2022-07-29T05:42:26;8.48;;;3.30;;
15256;SDS011;7731;50.720;6.912;2022-07-29T05:44:57;8.63;;;3.00;;
15256;SDS011;7731;50.720;6.912;2022-07-29T05:47:27;7.40;;;3.20;;
15256;SDS011;7731;50.720;6.912;2022-07-29T05:49:57;12.88;;;2.95;;
15256;SDS011;7731;50.720;6.912;2022-07-29T05:52:30;9.35;;;3.42;;
15256;SDS011;7731;50.720;6.912;2022-07-29T05:55:01;7.07;;;3.08;;
15256;SDS011;7731;50.720;6.912;2022-07-29T05:57:32;7.57;;;2.88;;
15256;SDS011;7731;50.720;6.912;2022-07-29T06:00:02;6.07;;;2.95;;
15256;SDS011;7731;50.720;6.912;2022-07-29T06:02:35;6.53;;;2.88;;
15256;SDS011;7731;50.720;6.912;2022-07-29T06:05:05;7.75;;;2.90;;
15256;SDS011;7731;50.720;6.912;2022-07-29T06:07:45;6.82;;;2.45;;
15256;SDS011;7731;50.720;6.912;2022-07-29T06:10:17;5.45;;;2.45;;
15256;SDS011;7731;50.720;6.912;2022-07-29T06:12:52;4.15;;;2.53;;
15256;SDS011;7731;50.720;6.912;2022-07-29T06:15:22;5.93;;;2.70;;
15256;SDS011;7731;50.720;6.912;2022-07-29T06:17:53;8.60;;;2.28;;
15256;SDS011;7731;50.720;6.912;2022-07-29T06:20:27;7.22;;;2.80;;
15256;SDS011;7731;50.720;6.912;2022-07-29T06:23:01;7.45;;;2.90;;
15256;SDS011;7731;50.720;6.912;2022-07-29T06:25:32;9.45;;;3.35;;
15256;SDS011;7731;50.720;6.912;2022-07-29T06:28:03;6.88;;;2.85;;
15256;SDS011;7731;50.720;6.912;2022-07-29T06:30:33;8.13;;;3.65;;
15256;SDS011;7731;50.720;6.912;2022-07-29T06:33:04;7.90;;;3.47;;
15256;SDS011;7731;50.720;6.912;2022-07-29T06:35:35;7.45;;;3.10;;
15256;SDS011;7731;50.720;6.912;2022-07-29T06:38:17;8.45;;;3.22;;
15256;SDS011;7731;50.720;6.912;2022-07-29T06:40:59;7.05;;;3.15;;
15256;SDS011;7731;50.720;6.912;2022-07-29T06:43:33;9.52;;;3.15;;
15256;SDS011;7731;50.720;6.912;2022-07-29T06:46:16;8.75;;;3.25;;
15256;SDS011;7731;50.720;6.912;2022-07-29T06:48:49;9.75;;;3.15;;
15256;SDS011;7731;50.720;6.912;2022-07-29T06:51:20;8.00;;;3.55;;
15256;SDS011;7731;50.720;6.912;2022-07-29T06:53:54;7.68;;;3.40;;
15256;SDS011;7731;50.720;6.912;2022-07-29T06:56:29;5.90;;;3.40;;
15256;SDS011;7731;50.720;6.912;2022-07-29T06:59:05;7.22;;;3.45;;
15256;SDS011;7731;50.720;6.912;2022-07-29T07:01:37;5.47;;;3.13;;
15256;SDS011;7731;50.720;6.912;2022-07-29T07:04:11;8.40;;;3.58;;
15256;SDS011;7731;50.720;6.912;2022-07-29T07:06:42;5.65;;;3.50;;
15256;SDS011;7731;50.720;6.912;2022-07-29T07:09:15;5.53;;;3.72;;
15256;SDS011;7731;50.720;6.912;2022-07-29T07:11:45;8.95;;;3.50;;
15256;SDS011;7731;50.720;6.912;2022-07-29T07:14:15;8.70;;;3.72;;
15256;SDS011;7731;50.720;6.912;2022-07-29T07:16:46;8.38;;;4.10;;
15256;SDS011;7731;50.720;6.912;2022-07-29T07:19:20;6.95;;;4.15;;
15256;SDS011;7731;50.720;6.912;2022-07-29T07:21:50;4.55;;;3.55;;
15256;SDS011;7731;50.720;6.912;2022-07-29T07:24:24;11.45;;;4.50;;
15256;SDS011;7731;50.720;6.912;2022-07-29T07:26:54;7.28;;;3.67;;
15256;SDS011;7731;50.720;6.912;2022-07-29T07:29:24;10.20;;;3.75;;
15256;SDS011;7731;50.720;6.912;2022-07-29T07:31:55;10.15;;;3.97;;
15256;SDS011;7731;50.720;6.912;2022-07-29T07:34:26;10.25;;;4.32;;
15256;SDS011;7731;50.720;6.912;2022-07-29T07:36:57;6.25;;;3.42;;
15256;SDS011;7731;50.720;6.912;2022-07-29T07:39:30;9.70;;;3.92;;
15256;SDS011;7731;50.720;6.912;2022-07-29T07:42:00;6.93;;;3.85;;
15256;SDS011;7731;50.720;6.912;2022-07-29T07:44:30;10.63;;;3.70;;
15256;SDS011;7731;50.720;6.912;2022-07-29T07:47:22;12.52;;;4.50;;
15256;SDS011;7731;50.720;6.912;2022-07-29T07:49:53;5.22;;;3.20;;
15256;SDS011;7731;50.720;6.912;2022-07-29T07:52:23;8.52;;;4.13;;
15256;SDS011;7731;50.720;6.912;2022-07-29T07:54:56;7.97;;;4.10;;
15256;SDS011;7731;50.720;6.912;2022-07-29T07:57:27;7.07;;;3.83;;
15256;SDS011;7731;50.720;6.912;2022-07-29T08:00:00;7.50;;;4.05;;
15256;SDS011;7731;50.720;6.912;2022-07-29T08:02:32;7.43;;;3.97;;
15256;SDS011;7731;50.720;6.912;2022-07-29T08:05:02;6.38;;;3.22;;
15256;SDS011;7731;50.720;6.912;2022-07-29T08:07:38;7.53;;;3.70;;
15256;SDS011;7731;50.720;6.912;2022-07-29T08:10:13;7.80;;;3.92;;
15256;SDS011;7731;50.720;6.912;2022-07-29T08:13:03;6.03;;;3.78;;
15256;SDS011;7731;50.720;6.912;2022-07-29T08:15:34;9.68;;;3.85;;
15256;SDS011;7731;50.720;6.912;2022-07-29T08:18:05;8.38;;;4.70;;
15256;SDS011;7731;50.720;6.912;2022-07-29T08:20:35;7.18;;;3.90;;
15256;SDS011;7731;50.720;6.912;2022-07-29T08:23:07;10.18;;;4.43;;
15256;SDS011;7731;50.720;6.912;2022-07-29T08:25:40;8.80;;;4.20;;
15256;SDS011;7731;50.720;6.912;2022-07-29T08:28:15;7.60;;;3.83;;
15256;SDS011;7731;50.720;6.912;2022-07-29T08:30:45;6.90;;;3.95;;
15256;SDS011;7731;50.720;6.912;2022-07-29T08:33:16;8.18;;;4.28;;
15256;SDS011;7731;50.720;6.912;2022-07-29T08:35:47;6.07;;;3.60;;
15256;SDS011;7731;50.720;6.912;2022-07-29T08:38:18;8.07;;;3.60;;
15256;SDS011;7731;50.720;6.912;2022-07-29T08:40:51;5.93;;;3.70;;
15256;SDS011;7731;50.720;6.912;2022-07-29T08:43:22;9.23;;;3.90;;
15256;SDS011;7731;50.720;6.912;2022-07-29T08:45:53;6.68;;;3.10;;
15256;SDS011;7731;50.720;6.912;2022-07-29T08:48:23;8.00;;;4.05;;
15256;SDS011;7731;50.720;6.912;2022-07-29T08:50:54;8.23;;;3.58;;
15256;SDS011;7731;50.720;6.912;2022-07-29T08:53:27;5.55;;;3.47;;
15256;SDS011;7731;50.720;6.912;2022-07-29T08:56:01;6.63;;;4.28;;
15256;SDS011;7731;50.720;6.912;2022-07-29T08:58:31;8.75;;;3.30;;
15256;SDS011;7731;50.720;6.912;2022-07-29T09:01:04;3.65;;;3.35;;
15256;SDS011;7731;50.720;6.912;2022-07-29T09:03:39;6.53;;;3.97;;
15256;SDS011;7731;50.720;6.912;2022-07-29T09:06:13;5.82;;;3.35;;
15256;SDS011;7731;50.720;6.912;2022-07-29T09:08:44;7.47;;;4.00;;
15256;SDS011;7731;50.720;6.912;2022-07-29T09:11:17;6.95;;;4.03;;
15256;SDS011;7731;50.720;6.912;2022-07-29T09:13:48;10.63;;;4.45;;
15256;SDS011;7731;50.720;6.912;2022-07-29T09:16:18;10.02;;;3.85;;
15256;SDS011;7731;50.720;6.912;2022-07-29T09:19:11;10.80;;;4.65;;
15256;SDS011;7731;50.720;6.912;2022-07-29T09:21:51;7.70;;;4.57;;
15256;SDS011;7731;50.720;6.912;2022-07-29T09:24:52;12.15;;;4.93;;
15256;SDS011;7731;50.720;6.912;2022-07-29T09:27:25;7.35;;;4.70;;
15256;SDS011;7731;50.720;6.912;2022-07-29T09:29:56;7.03;;;4.32;;
15256;SDS011;7731;50.720;6.912;2022-07-29T09:32:29;6.13;;;4.70;;
15256;SDS011;7731;50.720;6.912;2022-07-29T09:35:16;10.77;;;4.97;;
15256;SDS011;7731;50.720;6.912;2022-07-29T09:37:49;10.50;;;4.80;;
15256;SDS011;7731;50.720;6.912;2022-07-29T09:40:20;8.35;;;4.80;;
15256;SDS011;7731;50.720;6.912;2022-07-29T09:42:55;6.28;;;4.00;;
15256;SDS011;7731;50.720;6.912;2022-07-29T09:45:27;9.45;;;4.60;;
15256;SDS011;7731;50.720;6.912;2022-07-29T09:47:59;5.55;;;4.82;;
15256;SDS011;7731;50.720;6.912;2022-07-29T09:50:43;6.07;;;4.10;;
15256;SDS011;7731;50.720;6.912;2022-07-29T09:53:29;6.30;;;3.88;;
15256;SDS011;7731;50.720;6.912;2022-07-29T09:56:01;9.40;;;4.15;;
15256;SDS011;7731;50.720;6.912;2022-07-29T09:58:34;4.60;;;3.50;;
15256;SDS011;7731;50.720;6.912;2022-07-29T10:01:05;8.10;;;3.80;;
15256;SDS011;7731;50.720;6.912;2022-07-29T10:03:49;5.00;;;3.40;;
15256;SDS011;7731;50.720;6.912;2022-07-29T10:06:20;5.90;;;3.20;;
15256;SDS011;7731;50.720;6.912;2022-07-29T10:08:51;6.40;;;3.85;;
15256;SDS011;7731;50.720;6.912;2022-07-29T10:11:22;8.40;;;3.88;;
15256;SDS011;7731;50.720;6.912;2022-07-29T10:14:14;8.80;;;3.97;;
15256;SDS011;7731;50.720;6.912;2022-07-29T10:16:45;6.97;;;3.60;;
15256;SDS011;7731;50.720;6.912;2022-07-29T10:19:15;6.93;;;4.13;;
15256;SDS011;7731;50.720;6.912;2022-07-29T10:21:46;6.97;;;4.22;;
15256;SDS011;7731;50.720;6.912;2022-07-29T10:24:23;9.45;;;4.55;;
15256;SDS011;7731;50.720;6.912;2022-07-29T10:26:56;6.47;;;3.63;;
15256;SDS011;7731;50.720;6.912;2022-07-29T10:29:31;7.78;;;4.32;;
15256;SDS011;7731;50.720;6.912;2022-07-29T10:32:08;6.50;;;4.20;;
15256;SDS011;7731;50.720;6.912;2022-07-29T10:34:55;6.97;;;3.63;;
15256;SDS011;7731;50.720;6.912;2022-07-29T10:38:00;6.75;;;4.13;;
15256;SDS011;7731;50.720;6.912;2022-07-29T10:40:52;10.10;;;4.10;;
15256;SDS011;7731;50.720;6.912;2022-07-29T10:43:50;5.50;;;3.67;;
15256;SDS011;7731;50.720;6.912;2022-07-29T10:46:27;9.32;;;4.00;;
15256;SDS011;7731;50.720;6.912;2022-07-29T10:49:07;5.65;;;3.70;;
15256;SDS011;7731;50.720;6.912;2022-07-29T10:51:54;7.05;;;3.75;;
15256;SDS011;7731;50.720;6.912;2022-07-29T10:54:44;5.00;;;3.75;;
15256;SDS011;7731;50.720;6.912;2022-07-29T10:57:23;5.75;;;3.15;;
15256;SDS011;7731;50.720;6.912;2022-07-29T11:00:26;5.57;;;3.00;;
15256;SDS011;7731;50.720;6.912;2022-07-29T11:03:04;5.75;;;3.20;;
15256;SDS011;7731;50.720;6.912;2022-07-29T11:08:25;5.57;;;3.00;;
15256;SDS011;7731;50.720;6.912;2022-07-29T11:14:02;8.63;;;3.28;;
15256;SDS011;7731;50.720;6.912;2022-07-29T11:19:35;5.75;;;2.70;;
15256;SDS011;7731;50.720;6.912;2022-07-29T11:22:12;4.70;;;2.90;;
15256;SDS011;7731;50.720;6.912;2022-07-29T11:28:13;4.65;;;2.70;;
15256;SDS011;7731;50.720;6.912;2022-07-29T11:30:51;3.08;;;2.35;;
15256;SDS011;7731;50.720;6.912;2022-07-29T11:33:26;4.35;;;2.33;;
15256;SDS011;7731;50.720;6.912;2022-07-29T11:36:21;4.78;;;2.65;;
15256;SDS011;7731;50.720;6.912;2022-07-29T11:38:53;5.75;;;2.47;;
15256;SDS011;7731;50.720;6.912;2022-07-29T11:45:27;3.38;;;2.30;;
15256;SDS011;7731;50.720;6.912;2022-07-29T11:48:16;4.90;;;2.33;;
15256;SDS011;7731;50.720;6.912;2022-07-29T11:51:11;3.63;;;2.40;;
15256;SDS011;7731;50.720;6.912;2022-07-29T11:54:07;5.78;;;2.70;;
15256;SDS011;7731;50.720;6.912;2022-07-29T11:56:53;4.85;;;2.60;;
15256;SDS011;7731;50.720;6.912;2022-07-29T11:59:24;7.28;;;2.60;;
15256;SDS011;7731;50.720;6.912;2022-07-29T12:02:00;3.03;;;2.03;;
15256;SDS011;7731;50.720;6.912;2022-07-29T12:04:50;4.15;;;2.60;;
15256;SDS011;7731;50.720;6.912;2022-07-29T12:07:26;6.70;;;2.33;;
15256;SDS011;7731;50.720;6.912;2022-07-29T12:10:04;7.05;;;2.50;;
15256;SDS011;7731;50.720;6.912;2022-07-29T12:12:55;5.43;;;2.38;;
15256;SDS011;7731;50.720;6.912;2022-07-29T12:15:25;3.58;;;2.65;;
15256;SDS011;7731;50.720;6.912;2022-07-29T12:18:13;3.30;;;2.50;;
15256;SDS011;7731;50.720;6.912;2022-07-29T12:20:56;6.13;;;2.70;;
15256;SDS011;7731;50.720;6.912;2022-07-29T12:23:30;9.43;;;3.03;;
15256;SDS011;7731;50.720;6.912;2022-07-29T12:26:05;4.25;;;2.90;;
15256;SDS011;7731;50.720;6.912;2022-07-29T12:28:51;4.63;;;2.70;;
15256;SDS011;7731;50.720;6.912;2022-07-29T12:31:22;4.40;;;2.80;;
15256;SDS011;7731;50.720;6.912;2022-07-29T12:34:09;4.35;;;2.92;;
15256;SDS011;7731;50.720;6.912;2022-07-29T12:36:40;4.63;;;2.75;;
15256;SDS011;7731;50.720;6.912;2022-07-29T12:39:12;5.13;;;2.78;;
15256;SDS011;7731;50.720;6.912;2022-07-29T12:41:47;4.40;;;2.33;;
15256;SDS011;7731;50.720;6.912;2022-07-29T12:44:42;4.18;;;2.60;;
15256;SDS011;7731;50.720;6.912;2022-07-29T12:47:15;4.28;;;2.70;;
15256;SDS011;7731;50.720;6.912;2022-07-29T12:49:47;3.78;;;2.70;;
15256;SDS011;7731;50.720;6.912;2022-07-29T12:52:23;5.85;;;2.40;;
15256;SDS011;7731;50.720;6.912;2022-07-29T12:54:58;6.50;;;3.08;;
15256;SDS011;7731;50.720;6.912;2022-07-29T12:57:35;5.88;;;3.05;;
15256;SDS011;7731;50.720;6.912;2022-07-29T13:00:20;6.20;;;2.72;;
15256;SDS011;7731;50.720;6.912;2022-07-29T13:02:55;8.18;;;2.95;;
15256;SDS011;7731;50.720;6.912;2022-07-29T13:05:38;4.60;;;3.15;;
15256;SDS011;7731;50.720;6.912;2022-07-29T13:08:15;5.35;;;3.00;;
15256;SDS011;7731;50.720;6.912;2022-07-29T13:10:48;3.90;;;2.70;;
15256;SDS011;7731;50.720;6.912;2022-07-29T13:13:21;3.03;;;2.65;;
15256;SDS011;7731;50.720;6.912;2022-07-29T13:16:05;5.80;;;2.70;;
15256;SDS011;7731;50.720;6.912;2022-07-29T13:18:37;6.90;;;2.53;;
15256;SDS011;7731;50.720;6.912;2022-07-29T13:21:11;5.28;;;2.85;;
15256;SDS011;7731;50.720;6.912;2022-07-29T13:23:44;4.97;;;2.17;;
15256;SDS011;7731;50.720;6.912;2022-07-29T13:26:14;5.88;;;2.38;;
15256;SDS011;7731;50.720;6.912;2022-07-29T13:28:48;2.97;;;2.40;;
15256;SDS011;7731;50.720;6.912;2022-07-29T13:31:18;6.78;;;2.50;;
15256;SDS011;7731;50.720;6.912;2022-07-29T13:33:49;5.50;;;2.50;;
15256;SDS011;7731;50.720;6.912;2022-07-29T13:36:19;3.35;;;2.10;;
15256;SDS011;7731;50.720;6.912;2022-07-29T13:38:50;3.72;;;2.40;;
15256;SDS011;7731;50.720;6.912;2022-07-29T13:41:20;3.10;;;2.30;;
15256;SDS011;7731;50.720;6.912;2022-07-29T13:43:53;3.53;;;2.40;;
15256;SDS011;7731;50.720;6.912;2022-07-29T13:46:24;4.05;;;2.40;;
15256;SDS011;7731;50.720;6.912;2022-07-29T13:48:54;3.67;;;2.60;;
15256;SDS011;7731;50.720;6.912;2022-07-29T13:51:25;4.57;;;2.67;;
15256;SDS011;7731;50.720;6.912;2022-07-29T13:54:19;4.90;;;2.30;;
15256;SDS011;7731;50.720;6.912;2022-07-29T13:57:14;4.22;;;1.95;;
15256;SDS011;7731;50.720;6.912;2022-07-29T13:59:48;5.50;;;2.53;;
15256;SDS011;7731;50.720;6.912;2022-07-29T14:02:20;4.38;;;2.28;;
15256;SDS011;7731;50.720;6.912;2022-07-29T14:04:51;3.42;;;2.42;;
15256;SDS011;7731;50.720;6.912;2022-07-29T14:07:22;4.30;;;2.33;;
15256;SDS011;7731;50.720;6.912;2022-07-29T14:09:53;5.30;;;2.60;;
15256;SDS011;7731;50.720;6.912;2022-07-29T14:12:23;3.83;;;2.25;;
15256;SDS011;7731;50.720;6.912;2022-07-29T14:14:56;3.45;;;2.22;;
15256;SDS011;7731;50.720;6.912;2022-07-29T14:17:26;3.92;;;2.53;;
15256;SDS011;7731;50.720;6.912;2022-07-29T14:19:56;5.75;;;2.67;;
15256;SDS011;7731;50.720;6.912;2022-07-29T14:22:27;7.10;;;2.55;;
15256;SDS011;7731;50.720;6.912;2022-07-29T14:24:57;4.00;;;2.35;;
15256;SDS011;7731;50.720;6.912;2022-07-29T14:27:36;2.80;;;2.05;;
15256;SDS011;7731;50.720;6.912;2022-07-29T14:30:10;4.57;;;2.58;;
15256;SDS011;7731;50.720;6.912;2022-07-29T14:32:42;4.80;;;2.47;;
15256;SDS011;7731;50.720;6.912;2022-07-29T14:35:12;5.88;;;2.90;;
15256;SDS011;7731;50.720;6.912;2022-07-29T14:37:43;4.55;;;2.65;;
15256;SDS011;7731;50.720;6.912;2022-07-29T14:40:13;4.72;;;3.15;;
15256;SDS011;7731;50.720;6.912;2022-07-29T14:42:43;4.72;;;2.72;;
15256;SDS011;7731;50.720;6.912;2022-07-29T14:45:16;6.93;;;3.45;;
15256;SDS011;7731;50.720;6.912;2022-07-29T14:47:47;4.75;;;3.88;;
15256;SDS011;7731;50.720;6.912;2022-07-29T14:50:22;8.05;;;4.32;;
15256;SDS011;7731;50.720;6.912;2022-07-29T14:52:57;7.38;;;4.15;;
15256;SDS011;7731;50.720;6.912;2022-07-29T14:55:27;6.53;;;4.20;;
15256;SDS011;7731;50.720;6.912;2022-07-29T14:57:58;8.73;;;4.60;;
15256;SDS011;7731;50.720;6.912;2022-07-29T15:00:38;4.88;;;4.00;;
15256;SDS011;7731;50.720;6.912;2022-07-29T15:03:09;6.90;;;4.03;;
15256;SDS011;7731;50.720;6.912;2022-07-29T15:05:49;6.78;;;4.43;;
15256;SDS011;7731;50.720;6.912;2022-07-29T15:08:20;6.78;;;4.18;;
15256;SDS011;7731;50.720;6.912;2022-07-29T15:10:51;7.10;;;4.30;;
15256;SDS011;7731;50.720;6.912;2022-07-29T15:13:23;6.95;;;3.97;;
15256;SDS011;7731;50.720;6.912;2022-07-29T15:15:56;6.30;;;3.83;;
15256;SDS011;7731;50.720;6.912;2022-07-29T15:18:27;5.97;;;3.22;;
15256;SDS011;7731;50.720;6.912;2022-07-29T15:20:57;5.88;;;3.13;;
15256;SDS011;7731;50.720;6.912;2022-07-29T15:23:28;4.25;;;2.95;;
15256;SDS011;7731;50.720;6.912;2022-07-29T15:25:58;5.97;;;3.25;;
15256;SDS011;7731;50.720;6.912;2022-07-29T15:28:29;7.07;;;3.60;;
15256;SDS011;7731;50.720;6.912;2022-07-29T15:31:01;8.35;;;3.63;;
15256;SDS011;7731;50.720;6.912;2022-07-29T15:33:32;6.78;;;3.35;;
15256;SDS011;7731;50.720;6.912;2022-07-29T15:36:03;5.60;;;3.15;;
15256;SDS011;7731;50.720;6.912;2022-07-29T15:38:34;10.00;;;3.50;;
15256;SDS011;7731;50.720;6.912;2022-07-29T15:41:07;7.10;;;3.38;;
15256;SDS011;7731;50.720;6.912;2022-07-29T15:43:37;3.17;;;2.80;;
15256;SDS011;7731;50.720;6.912;2022-07-29T15:46:16;4.15;;;2.75;;
15256;SDS011;7731;50.720;6.912;2022-07-29T15:49:01;3.65;;;2.60;;
15256;SDS011;7731;50.720;6.912;2022-07-29T15:51:34;4.38;;;2.67;;
15256;SDS011;7731;50.720;6.912;2022-07-29T15:54:04;3.70;;;2.70;;
15256;SDS011;7731;50.720;6.912;2022-07-29T15:56:35;5.78;;;2.78;;
15256;SDS011;7731;50.720;6.912;2022-07-29T15:59:05;8.27;;;2.75;;
15256;SDS011;7731;50.720;6.912;2022-07-29T16:01:50;4.85;;;2.40;;
15256;SDS011;7731;50.720;6.912;2022-07-29T16:04:21;3.40;;;2.08;;
15256;SDS011;7731;50.720;6.912;2022-07-29T16:06:52;4.10;;;2.80;;